sensor_id;sensor_type;location;lat;lon;timestamp;P1;durP1;ratioP1;P2;durP2;ratioP2
57341;SDS011;43175;51.002;18.316;2023-11-19T00:00:16;53.60;;;25.60;;
57341;SDS011;43175;51.002;18.316;2023-11-19T00:02:42;54.00;;;24.20;;
57341;SDS011;43175;51.002;18.316;2023-11-19T00:05:08;58.70;;;24.60;;
57341;SDS011;43175;51.002;18.316;2023-11-19T00:07:36;55.30;;;24.20;;
57341;SDS011;43175;51.002;18.316;2023-11-19T00:10:07;54.10;;;24.40;;
57341;SDS011;43175;51.002;18.316;2023-11-19T00:12:39;59.80;;;25.30;;
57341;SDS011;43175;51.002;18.316;2023-11-19T00:15:06;58.70;;;25.80;;
57341;SDS011;43175;51.002;18.316;2023-11-19T00:17:43;58.00;;;25.70;;
57341;SDS011;43175;51.002;18.316;2023-11-19T00:20:13;57.40;;;25.80;;
57341;SDS011;43175;51.002;18.316;2023-11-19T00:22:40;61.20;;;27.10;;
57341;SDS011;43175;51.002;18.316;2023-11-19T00:25:08;65.60;;;27.70;;
57341;SDS011;43175;51.002;18.316;2023-11-19T00:27:37;57.30;;;24.70;;
57341;SDS011;43175;51.002;18.316;2023-11-19T00:30:04;58.20;;;24.40;;
57341;SDS011;43175;51.002;18.316;2023-11-19T00:32:33;64.70;;;26.10;;
57341;SDS011;43175;51.002;18.316;2023-11-19T00:34:59;65.00;;;26.80;;
57341;SDS011;43175;51.002;18.316;2023-11-19T00:37:25;64.60;;;27.80;;
57341;SDS011;43175;51.002;18.316;2023-11-19T00:39:51;61.90;;;26.70;;
57341;SDS011;43175;51.002;18.316;2023-11-19T00:42:17;59.00;;;25.00;;
57341;SDS011;43175;51.002;18.316;2023-11-19T00:44:43;56.60;;;25.10;;
57341;SDS011;43175;51.002;18.316;2023-11-19T00:47:08;60.20;;;24.80;;
57341;SDS011;43175;51.002;18.316;2023-11-19T00:49:34;56.70;;;24.70;;
57341;SDS011;43175;51.002;18.316;2023-11-19T00:52:00;61.40;;;24.70;;
57341;SDS011;43175;51.002;18.316;2023-11-19T00:54:27;57.40;;;25.20;;
57341;SDS011;43175;51.002;18.316;2023-11-19T00:56:53;56.50;;;24.30;;
57341;SDS011;43175;51.002;18.316;2023-11-19T00:59:19;55.40;;;23.90;;
57341;SDS011;43175;51.002;18.316;2023-11-19T01:01:45;54.20;;;24.50;;
57341;SDS011;43175;51.002;18.316;2023-11-19T01:04:10;58.70;;;24.90;;
57341;SDS011;43175;51.002;18.316;2023-11-19T01:06:36;56.60;;;24.70;;
57341;SDS011;43175;51.002;18.316;2023-11-19T01:09:02;53.00;;;23.80;;
57341;SDS011;43175;51.002;18.316;2023-11-19T01:11:27;52.50;;;23.40;;
57341;SDS011;43175;51.002;18.316;2023-11-19T01:13:53;49.80;;;22.20;;
57341;SDS011;43175;51.002;18.316;2023-11-19T01:16:19;50.80;;;22.50;;
57341;SDS011;43175;51.002;18.316;2023-11-19T01:18:49;46.90;;;20.80;;
57341;SDS011;43175;51.002;18.316;2023-11-19T01:21:15;53.50;;;22.80;;
57341;SDS011;43175;51.002;18.316;2023-11-19T01:23:41;52.90;;;24.20;;
57341;SDS011;43175;51.002;18.316;2023-11-19T01:26:11;50.90;;;24.10;;
57341;SDS011;43175;51.002;18.316;2023-11-19T01:28:38;50.20;;;22.30;;
57341;SDS011;43175;51.002;18.316;2023-11-19T01:31:14;53.10;;;23.60;;
57341;SDS011;43175;51.002;18.316;2023-11-19T01:33:40;49.20;;;21.30;;
57341;SDS011;43175;51.002;18.316;2023-11-19T01:36:07;48.40;;;20.30;;
57341;SDS011;43175;51.002;18.316;2023-11-19T01:38:33;49.30;;;22.40;;
57341;SDS011;43175;51.002;18.316;2023-11-19T01:41:00;48.80;;;21.70;;
57341;SDS011;43175;51.002;18.316;2023-11-19T01:45:59;54.40;;;23.40;;
57341;SDS011;43175;51.002;18.316;2023-11-19T01:48:27;50.40;;;23.10;;
57341;SDS011;43175;51.002;18.316;2023-11-19T01:50:53;49.40;;;22.90;;
57341;SDS011;43175;51.002;18.316;2023-11-19T01:53:19;50.40;;;23.20;;
57341;SDS011;43175;51.002;18.316;2023-11-19T01:55:46;50.30;;;22.40;;
57341;SDS011;43175;51.002;18.316;2023-11-19T01:58:12;48.20;;;21.10;;
57341;SDS011;43175;51.002;18.316;2023-11-19T02:00:37;47.60;;;20.30;;
57341;SDS011;43175;51.002;18.316;2023-11-19T02:03:05;44.30;;;20.50;;
57341;SDS011;43175;51.002;18.316;2023-11-19T02:05:33;45.80;;;20.50;;
57341;SDS011;43175;51.002;18.316;2023-11-19T02:07:59;42.60;;;20.00;;
57341;SDS011;43175;51.002;18.316;2023-11-19T02:10:25;45.90;;;20.30;;
57341;SDS011;43175;51.002;18.316;2023-11-19T02:12:50;48.00;;;20.90;;
57341;SDS011;43175;51.002;18.316;2023-11-19T02:15:16;44.50;;;20.30;;
57341;SDS011;43175;51.002;18.316;2023-11-19T02:17:44;44.00;;;21.00;;
57341;SDS011;43175;51.002;18.316;2023-11-19T02:20:10;42.60;;;19.10;;
57341;SDS011;43175;51.002;18.316;2023-11-19T02:22:38;45.00;;;19.70;;
57341;SDS011;43175;51.002;18.316;2023-11-19T02:30:17;46.10;;;20.70;;
57341;SDS011;43175;51.002;18.316;2023-11-19T02:32:42;44.20;;;19.80;;
57341;SDS011;43175;51.002;18.316;2023-11-19T02:35:08;46.20;;;20.30;;
57341;SDS011;43175;51.002;18.316;2023-11-19T02:37:34;42.60;;;19.50;;
57341;SDS011;43175;51.002;18.316;2023-11-19T02:40:00;43.00;;;19.20;;
57341;SDS011;43175;51.002;18.316;2023-11-19T02:42:28;45.70;;;21.10;;
57341;SDS011;43175;51.002;18.316;2023-11-19T02:44:54;50.90;;;22.50;;
57341;SDS011;43175;51.002;18.316;2023-11-19T02:47:20;46.60;;;20.70;;
57341;SDS011;43175;51.002;18.316;2023-11-19T02:49:48;50.50;;;22.60;;
57341;SDS011;43175;51.002;18.316;2023-11-19T02:52:14;45.10;;;19.90;;
57341;SDS011;43175;51.002;18.316;2023-11-19T02:54:40;44.70;;;20.40;;
57341;SDS011;43175;51.002;18.316;2023-11-19T02:57:06;44.10;;;20.40;;
57341;SDS011;43175;51.002;18.316;2023-11-19T02:59:35;48.00;;;21.00;;
57341;SDS011;43175;51.002;18.316;2023-11-19T03:02:07;53.00;;;22.00;;
57341;SDS011;43175;51.002;18.316;2023-11-19T03:04:37;44.80;;;20.30;;
57341;SDS011;43175;51.002;18.316;2023-11-19T03:07:06;45.10;;;20.60;;
57341;SDS011;43175;51.002;18.316;2023-11-19T03:09:35;43.50;;;19.70;;
57341;SDS011;43175;51.002;18.316;2023-11-19T03:12:01;43.90;;;19.70;;
57341;SDS011;43175;51.002;18.316;2023-11-19T03:14:27;45.60;;;19.30;;
57341;SDS011;43175;51.002;18.316;2023-11-19T03:16:53;47.20;;;21.10;;
57341;SDS011;43175;51.002;18.316;2023-11-19T03:19:19;43.90;;;19.80;;
57341;SDS011;43175;51.002;18.316;2023-11-19T03:21:44;44.70;;;20.60;;
57341;SDS011;43175;51.002;18.316;2023-11-19T03:24:12;50.30;;;22.10;;
57341;SDS011;43175;51.002;18.316;2023-11-19T03:26:38;49.90;;;22.00;;
57341;SDS011;43175;51.002;18.316;2023-11-19T03:29:04;46.90;;;21.10;;
57341;SDS011;43175;51.002;18.316;2023-11-19T03:31:30;50.10;;;21.90;;
57341;SDS011;43175;51.002;18.316;2023-11-19T03:33:55;46.20;;;21.40;;
57341;SDS011;43175;51.002;18.316;2023-11-19T03:36:21;49.20;;;21.40;;
57341;SDS011;43175;51.002;18.316;2023-11-19T03:38:47;49.70;;;21.20;;
57341;SDS011;43175;51.002;18.316;2023-11-19T03:41:13;49.50;;;22.80;;
57341;SDS011;43175;51.002;18.316;2023-11-19T03:43:39;46.30;;;20.80;;
57341;SDS011;43175;51.002;18.316;2023-11-19T03:46:21;45.90;;;20.80;;
57341;SDS011;43175;51.002;18.316;2023-11-19T03:48:50;45.70;;;19.60;;
57341;SDS011;43175;51.002;18.316;2023-11-19T03:51:15;43.70;;;19.20;;
57341;SDS011;43175;51.002;18.316;2023-11-19T03:53:42;43.70;;;19.70;;
57341;SDS011;43175;51.002;18.316;2023-11-19T03:56:09;46.30;;;20.40;;
57341;SDS011;43175;51.002;18.316;2023-11-19T03:58:35;45.50;;;20.50;;
57341;SDS011;43175;51.002;18.316;2023-11-19T04:01:01;43.80;;;20.10;;
57341;SDS011;43175;51.002;18.316;2023-11-19T04:03:27;44.60;;;20.90;;
57341;SDS011;43175;51.002;18.316;2023-11-19T04:05:53;46.70;;;21.40;;
57341;SDS011;43175;51.002;18.316;2023-11-19T04:08:19;45.10;;;20.30;;
57341;SDS011;43175;51.002;18.316;2023-11-19T04:10:45;46.10;;;20.90;;
57341;SDS011;43175;51.002;18.316;2023-11-19T04:13:10;45.70;;;20.00;;
57341;SDS011;43175;51.002;18.316;2023-11-19T04:15:36;42.90;;;20.20;;
57341;SDS011;43175;51.002;18.316;2023-11-19T04:18:01;48.40;;;19.90;;
57341;SDS011;43175;51.002;18.316;2023-11-19T04:20:27;41.80;;;20.10;;
57341;SDS011;43175;51.002;18.316;2023-11-19T04:22:53;45.60;;;20.20;;
57341;SDS011;43175;51.002;18.316;2023-11-19T04:25:19;44.40;;;20.30;;
57341;SDS011;43175;51.002;18.316;2023-11-19T04:27:44;42.70;;;19.90;;
57341;SDS011;43175;51.002;18.316;2023-11-19T04:30:11;43.20;;;19.70;;
57341;SDS011;43175;51.002;18.316;2023-11-19T04:32:37;41.80;;;19.40;;
57341;SDS011;43175;51.002;18.316;2023-11-19T04:35:03;49.70;;;22.50;;
57341;SDS011;43175;51.002;18.316;2023-11-19T04:37:29;52.70;;;24.50;;
57341;SDS011;43175;51.002;18.316;2023-11-19T04:39:54;57.10;;;26.60;;
57341;SDS011;43175;51.002;18.316;2023-11-19T04:42:22;61.90;;;29.00;;
57341;SDS011;43175;51.002;18.316;2023-11-19T04:44:48;57.00;;;26.90;;
57341;SDS011;43175;51.002;18.316;2023-11-19T04:47:13;60.40;;;27.50;;
57341;SDS011;43175;51.002;18.316;2023-11-19T04:49:42;61.80;;;28.60;;
57341;SDS011;43175;51.002;18.316;2023-11-19T04:52:08;59.40;;;27.50;;
57341;SDS011;43175;51.002;18.316;2023-11-19T04:54:34;51.40;;;24.10;;
57341;SDS011;43175;51.002;18.316;2023-11-19T04:56:59;46.40;;;22.10;;
57341;SDS011;43175;51.002;18.316;2023-11-19T04:59:25;49.90;;;23.50;;
57341;SDS011;43175;51.002;18.316;2023-11-19T05:01:52;49.30;;;21.70;;
57341;SDS011;43175;51.002;18.316;2023-11-19T05:04:18;45.40;;;21.30;;
57341;SDS011;43175;51.002;18.316;2023-11-19T05:06:46;43.60;;;21.20;;
57341;SDS011;43175;51.002;18.316;2023-11-19T05:09:12;47.20;;;21.10;;
57341;SDS011;43175;51.002;18.316;2023-11-19T05:11:38;42.70;;;20.00;;
57341;SDS011;43175;51.002;18.316;2023-11-19T05:14:05;46.00;;;20.30;;
57341;SDS011;43175;51.002;18.316;2023-11-19T05:16:31;47.00;;;21.30;;
57341;SDS011;43175;51.002;18.316;2023-11-19T05:18:57;46.00;;;22.40;;
57341;SDS011;43175;51.002;18.316;2023-11-19T05:21:22;48.20;;;21.50;;
57341;SDS011;43175;51.002;18.316;2023-11-19T05:23:49;48.30;;;22.00;;
57341;SDS011;43175;51.002;18.316;2023-11-19T05:26:21;51.60;;;23.50;;
57341;SDS011;43175;51.002;18.316;2023-11-19T05:28:47;47.50;;;22.40;;
57341;SDS011;43175;51.002;18.316;2023-11-19T05:31:13;45.40;;;21.60;;
57341;SDS011;43175;51.002;18.316;2023-11-19T05:33:39;47.90;;;22.60;;
57341;SDS011;43175;51.002;18.316;2023-11-19T05:36:05;48.30;;;22.80;;
57341;SDS011;43175;51.002;18.316;2023-11-19T05:38:34;51.40;;;21.50;;
57341;SDS011;43175;51.002;18.316;2023-11-19T05:41:00;52.10;;;24.10;;
57341;SDS011;43175;51.002;18.316;2023-11-19T05:43:26;49.60;;;22.40;;
57341;SDS011;43175;51.002;18.316;2023-11-19T05:45:52;49.30;;;22.90;;
57341;SDS011;43175;51.002;18.316;2023-11-19T05:48:17;49.40;;;22.90;;
57341;SDS011;43175;51.002;18.316;2023-11-19T05:50:43;54.30;;;25.10;;
57341;SDS011;43175;51.002;18.316;2023-11-19T05:53:09;53.90;;;24.30;;
57341;SDS011;43175;51.002;18.316;2023-11-19T05:55:36;55.20;;;25.40;;
57341;SDS011;43175;51.002;18.316;2023-11-19T05:58:10;53.50;;;25.00;;
57341;SDS011;43175;51.002;18.316;2023-11-19T06:00:38;54.40;;;25.80;;
57341;SDS011;43175;51.002;18.316;2023-11-19T06:03:05;49.30;;;22.80;;
57341;SDS011;43175;51.002;18.316;2023-11-19T06:05:32;51.00;;;23.50;;
57341;SDS011;43175;51.002;18.316;2023-11-19T06:07:58;51.30;;;25.00;;
57341;SDS011;43175;51.002;18.316;2023-11-19T06:10:24;55.80;;;25.40;;
57341;SDS011;43175;51.002;18.316;2023-11-19T06:12:58;50.80;;;24.00;;
57341;SDS011;43175;51.002;18.316;2023-11-19T06:15:25;50.50;;;24.00;;
57341;SDS011;43175;51.002;18.316;2023-11-19T06:17:52;48.00;;;23.80;;
57341;SDS011;43175;51.002;18.316;2023-11-19T06:20:18;51.00;;;23.30;;
57341;SDS011;43175;51.002;18.316;2023-11-19T06:22:45;51.90;;;23.40;;
57341;SDS011;43175;51.002;18.316;2023-11-19T06:25:11;53.20;;;24.60;;
57341;SDS011;43175;51.002;18.316;2023-11-19T06:27:40;53.00;;;24.60;;
57341;SDS011;43175;51.002;18.316;2023-11-19T06:30:07;56.10;;;26.20;;
57341;SDS011;43175;51.002;18.316;2023-11-19T06:32:33;52.00;;;24.70;;
57341;SDS011;43175;51.002;18.316;2023-11-19T06:34:59;57.60;;;26.00;;
57341;SDS011;43175;51.002;18.316;2023-11-19T06:37:24;51.50;;;24.50;;
57341;SDS011;43175;51.002;18.316;2023-11-19T06:39:50;54.30;;;25.30;;
57341;SDS011;43175;51.002;18.316;2023-11-19T06:42:16;52.40;;;23.90;;
57341;SDS011;43175;51.002;18.316;2023-11-19T06:44:42;52.10;;;24.70;;
57341;SDS011;43175;51.002;18.316;2023-11-19T06:47:08;49.70;;;24.20;;
57341;SDS011;43175;51.002;18.316;2023-11-19T06:49:33;53.00;;;25.40;;
57341;SDS011;43175;51.002;18.316;2023-11-19T06:51:59;51.00;;;24.70;;
57341;SDS011;43175;51.002;18.316;2023-11-19T06:54:25;48.90;;;23.50;;
57341;SDS011;43175;51.002;18.316;2023-11-19T06:56:51;51.20;;;23.90;;
57341;SDS011;43175;51.002;18.316;2023-11-19T06:59:16;56.90;;;24.10;;
57341;SDS011;43175;51.002;18.316;2023-11-19T07:01:42;53.30;;;25.40;;
57341;SDS011;43175;51.002;18.316;2023-11-19T07:04:11;47.30;;;24.30;;
57341;SDS011;43175;51.002;18.316;2023-11-19T07:06:38;48.60;;;22.10;;
57341;SDS011;43175;51.002;18.316;2023-11-19T07:09:06;49.90;;;24.70;;
57341;SDS011;43175;51.002;18.316;2023-11-19T07:11:37;45.00;;;21.70;;
57341;SDS011;43175;51.002;18.316;2023-11-19T07:14:04;49.30;;;22.30;;
57341;SDS011;43175;51.002;18.316;2023-11-19T07:16:32;49.30;;;22.60;;
57341;SDS011;43175;51.002;18.316;2023-11-19T07:19:00;48.90;;;22.10;;
57341;SDS011;43175;51.002;18.316;2023-11-19T07:21:26;47.40;;;22.50;;
57341;SDS011;43175;51.002;18.316;2023-11-19T07:23:54;46.20;;;21.00;;
57341;SDS011;43175;51.002;18.316;2023-11-19T07:26:20;50.00;;;22.90;;
57341;SDS011;43175;51.002;18.316;2023-11-19T07:28:47;45.00;;;21.40;;
57341;SDS011;43175;51.002;18.316;2023-11-19T07:31:13;45.90;;;21.90;;
57341;SDS011;43175;51.002;18.316;2023-11-19T07:33:39;47.80;;;21.40;;
57341;SDS011;43175;51.002;18.316;2023-11-19T07:36:05;45.20;;;20.80;;
57341;SDS011;43175;51.002;18.316;2023-11-19T07:38:31;45.40;;;22.60;;
57341;SDS011;43175;51.002;18.316;2023-11-19T07:40:56;43.20;;;20.60;;
57341;SDS011;43175;51.002;18.316;2023-11-19T07:43:22;43.30;;;21.50;;
57341;SDS011;43175;51.002;18.316;2023-11-19T07:45:48;43.30;;;20.80;;
57341;SDS011;43175;51.002;18.316;2023-11-19T07:48:13;44.70;;;20.00;;
57341;SDS011;43175;51.002;18.316;2023-11-19T07:50:39;42.80;;;20.30;;
57341;SDS011;43175;51.002;18.316;2023-11-19T07:53:07;41.90;;;19.90;;
57341;SDS011;43175;51.002;18.316;2023-11-19T07:55:34;38.90;;;19.30;;
57341;SDS011;43175;51.002;18.316;2023-11-19T07:58:01;40.90;;;20.00;;
57341;SDS011;43175;51.002;18.316;2023-11-19T08:00:26;40.60;;;19.40;;
57341;SDS011;43175;51.002;18.316;2023-11-19T08:02:52;39.90;;;19.40;;
57341;SDS011;43175;51.002;18.316;2023-11-19T08:05:18;43.00;;;20.00;;
57341;SDS011;43175;51.002;18.316;2023-11-19T08:07:43;39.60;;;20.00;;
57341;SDS011;43175;51.002;18.316;2023-11-19T08:10:09;39.10;;;19.20;;
57341;SDS011;43175;51.002;18.316;2023-11-19T08:12:35;41.90;;;18.70;;
57341;SDS011;43175;51.002;18.316;2023-11-19T08:15:02;38.90;;;20.10;;
57341;SDS011;43175;51.002;18.316;2023-11-19T08:17:28;36.60;;;17.80;;
57341;SDS011;43175;51.002;18.316;2023-11-19T08:19:53;40.60;;;20.00;;
57341;SDS011;43175;51.002;18.316;2023-11-19T08:22:19;38.90;;;18.30;;
57341;SDS011;43175;51.002;18.316;2023-11-19T08:24:44;40.50;;;19.50;;
57341;SDS011;43175;51.002;18.316;2023-11-19T08:27:10;39.00;;;19.40;;
57341;SDS011;43175;51.002;18.316;2023-11-19T08:29:36;41.10;;;19.50;;
57341;SDS011;43175;51.002;18.316;2023-11-19T08:32:02;40.60;;;19.80;;
57341;SDS011;43175;51.002;18.316;2023-11-19T08:34:28;43.10;;;20.60;;
57341;SDS011;43175;51.002;18.316;2023-11-19T08:36:54;41.50;;;20.00;;
57341;SDS011;43175;51.002;18.316;2023-11-19T08:39:21;37.10;;;19.60;;
57341;SDS011;43175;51.002;18.316;2023-11-19T08:41:47;39.50;;;20.00;;
57341;SDS011;43175;51.002;18.316;2023-11-19T08:44:13;40.40;;;19.80;;
57341;SDS011;43175;51.002;18.316;2023-11-19T08:46:45;39.30;;;20.20;;
57341;SDS011;43175;51.002;18.316;2023-11-19T08:49:12;38.80;;;19.50;;
57341;SDS011;43175;51.002;18.316;2023-11-19T08:51:38;39.20;;;19.70;;
57341;SDS011;43175;51.002;18.316;2023-11-19T08:54:04;41.30;;;19.90;;
57341;SDS011;43175;51.002;18.316;2023-11-19T08:56:30;40.50;;;19.70;;
57341;SDS011;43175;51.002;18.316;2023-11-19T08:58:58;38.00;;;18.90;;
57341;SDS011;43175;51.002;18.316;2023-11-19T09:01:23;39.30;;;19.70;;
57341;SDS011;43175;51.002;18.316;2023-11-19T09:03:50;39.20;;;18.60;;
57341;SDS011;43175;51.002;18.316;2023-11-19T09:06:16;37.00;;;18.80;;
57341;SDS011;43175;51.002;18.316;2023-11-19T09:08:44;36.70;;;19.40;;
57341;SDS011;43175;51.002;18.316;2023-11-19T09:11:10;41.60;;;19.70;;
57341;SDS011;43175;51.002;18.316;2023-11-19T09:13:35;36.90;;;18.40;;
57341;SDS011;43175;51.002;18.316;2023-11-19T09:16:01;36.40;;;18.20;;
57341;SDS011;43175;51.002;18.316;2023-11-19T09:18:30;38.70;;;19.00;;
57341;SDS011;43175;51.002;18.316;2023-11-19T09:20:57;33.30;;;16.90;;
57341;SDS011;43175;51.002;18.316;2023-11-19T09:23:23;35.80;;;18.00;;
57341;SDS011;43175;51.002;18.316;2023-11-19T09:25:54;37.60;;;17.60;;
57341;SDS011;43175;51.002;18.316;2023-11-19T09:28:20;31.80;;;16.60;;
57341;SDS011;43175;51.002;18.316;2023-11-19T09:30:45;35.20;;;16.40;;
57341;SDS011;43175;51.002;18.316;2023-11-19T09:33:11;34.20;;;17.70;;
57341;SDS011;43175;51.002;18.316;2023-11-19T09:35:37;39.30;;;21.90;;
57341;SDS011;43175;51.002;18.316;2023-11-19T09:38:02;35.80;;;19.40;;
57341;SDS011;43175;51.002;18.316;2023-11-19T09:40:30;33.40;;;18.10;;
57341;SDS011;43175;51.002;18.316;2023-11-19T09:42:57;31.10;;;16.10;;
57341;SDS011;43175;51.002;18.316;2023-11-19T09:45:22;30.00;;;15.90;;
57341;SDS011;43175;51.002;18.316;2023-11-19T09:47:53;31.60;;;15.80;;
57341;SDS011;43175;51.002;18.316;2023-11-19T09:50:20;29.80;;;14.70;;
57341;SDS011;43175;51.002;18.316;2023-11-19T09:52:46;33.50;;;16.60;;
57341;SDS011;43175;51.002;18.316;2023-11-19T09:55:12;30.50;;;15.80;;
57341;SDS011;43175;51.002;18.316;2023-11-19T09:57:39;32.90;;;16.20;;
57341;SDS011;43175;51.002;18.316;2023-11-19T10:02:50;29.50;;;15.60;;
57341;SDS011;43175;51.002;18.316;2023-11-19T10:05:17;30.30;;;14.90;;
57341;SDS011;43175;51.002;18.316;2023-11-19T10:07:43;31.30;;;15.60;;
57341;SDS011;43175;51.002;18.316;2023-11-19T10:10:09;29.80;;;15.20;;
57341;SDS011;43175;51.002;18.316;2023-11-19T10:12:39;29.30;;;14.70;;
57341;SDS011;43175;51.002;18.316;2023-11-19T10:15:05;31.00;;;15.50;;
57341;SDS011;43175;51.002;18.316;2023-11-19T10:17:32;32.50;;;16.60;;
57341;SDS011;43175;51.002;18.316;2023-11-19T10:19:58;29.40;;;15.10;;
57341;SDS011;43175;51.002;18.316;2023-11-19T10:22:24;30.40;;;15.40;;
57341;SDS011;43175;51.002;18.316;2023-11-19T10:24:52;31.00;;;15.60;;
57341;SDS011;43175;51.002;18.316;2023-11-19T10:27:18;32.60;;;16.10;;
57341;SDS011;43175;51.002;18.316;2023-11-19T10:29:44;34.10;;;17.30;;
57341;SDS011;43175;51.002;18.316;2023-11-19T10:32:13;31.10;;;16.20;;
57341;SDS011;43175;51.002;18.316;2023-11-19T10:34:42;35.80;;;17.40;;
57341;SDS011;43175;51.002;18.316;2023-11-19T10:37:08;29.90;;;15.20;;
57341;SDS011;43175;51.002;18.316;2023-11-19T10:39:53;32.10;;;16.60;;
57341;SDS011;43175;51.002;18.316;2023-11-19T10:42:20;32.10;;;15.60;;
57341;SDS011;43175;51.002;18.316;2023-11-19T10:44:46;34.80;;;18.00;;
57341;SDS011;43175;51.002;18.316;2023-11-19T10:47:11;46.90;;;25.50;;
57341;SDS011;43175;51.002;18.316;2023-11-19T10:49:39;42.50;;;23.30;;
57341;SDS011;43175;51.002;18.316;2023-11-19T10:52:07;40.40;;;21.60;;
57341;SDS011;43175;51.002;18.316;2023-11-19T10:54:34;36.80;;;21.90;;
57341;SDS011;43175;51.002;18.316;2023-11-19T10:57:01;33.00;;;18.80;;
57341;SDS011;43175;51.002;18.316;2023-11-19T10:59:30;41.20;;;23.00;;
57341;SDS011;43175;51.002;18.316;2023-11-19T11:02:00;32.60;;;18.40;;
57341;SDS011;43175;51.002;18.316;2023-11-19T11:04:31;30.70;;;16.90;;
57341;SDS011;43175;51.002;18.316;2023-11-19T11:06:59;31.50;;;16.90;;
57341;SDS011;43175;51.002;18.316;2023-11-19T11:09:28;29.50;;;15.70;;
57341;SDS011;43175;51.002;18.316;2023-11-19T11:11:55;28.00;;;14.70;;
57341;SDS011;43175;51.002;18.316;2023-11-19T11:14:22;28.50;;;15.70;;
57341;SDS011;43175;51.002;18.316;2023-11-19T11:16:49;27.10;;;14.70;;
57341;SDS011;43175;51.002;18.316;2023-11-19T11:19:15;29.20;;;15.30;;
57341;SDS011;43175;51.002;18.316;2023-11-19T11:21:43;28.30;;;13.80;;
57341;SDS011;43175;51.002;18.316;2023-11-19T11:24:24;27.70;;;14.00;;
57341;SDS011;43175;51.002;18.316;2023-11-19T11:32:50;28.50;;;14.80;;
57341;SDS011;43175;51.002;18.316;2023-11-19T11:38:21;25.50;;;13.10;;
57341;SDS011;43175;51.002;18.316;2023-11-19T11:43:47;24.70;;;12.60;;
57341;SDS011;43175;51.002;18.316;2023-11-19T11:49:02;24.70;;;12.50;;
57341;SDS011;43175;51.002;18.316;2023-11-19T11:54:31;27.00;;;14.40;;
57341;SDS011;43175;51.002;18.316;2023-11-19T11:57:15;25.40;;;12.80;;
57341;SDS011;43175;51.002;18.316;2023-11-19T12:02:17;26.70;;;13.90;;
57341;SDS011;43175;51.002;18.316;2023-11-19T12:04:50;26.80;;;13.50;;
57341;SDS011;43175;51.002;18.316;2023-11-19T12:10:07;24.40;;;13.20;;
57341;SDS011;43175;51.002;18.316;2023-11-19T12:12:36;25.00;;;12.50;;
57341;SDS011;43175;51.002;18.316;2023-11-19T12:15:06;29.60;;;15.70;;
57341;SDS011;43175;51.002;18.316;2023-11-19T12:17:48;32.10;;;16.40;;
57341;SDS011;43175;51.002;18.316;2023-11-19T12:20:14;28.60;;;15.00;;
57341;SDS011;43175;51.002;18.316;2023-11-19T12:22:42;29.70;;;14.50;;
57341;SDS011;43175;51.002;18.316;2023-11-19T12:25:09;25.30;;;14.20;;
57341;SDS011;43175;51.002;18.316;2023-11-19T12:27:37;27.20;;;14.40;;
57341;SDS011;43175;51.002;18.316;2023-11-19T12:30:05;27.50;;;14.10;;
57341;SDS011;43175;51.002;18.316;2023-11-19T12:32:38;31.00;;;15.70;;
57341;SDS011;43175;51.002;18.316;2023-11-19T12:35:04;29.70;;;14.20;;
57341;SDS011;43175;51.002;18.316;2023-11-19T12:37:29;28.70;;;15.00;;
57341;SDS011;43175;51.002;18.316;2023-11-19T12:39:59;29.00;;;15.70;;
57341;SDS011;43175;51.002;18.316;2023-11-19T12:42:35;27.20;;;14.70;;
57341;SDS011;43175;51.002;18.316;2023-11-19T12:45:02;26.40;;;14.50;;
57341;SDS011;43175;51.002;18.316;2023-11-19T12:47:29;26.00;;;14.00;;
57341;SDS011;43175;51.002;18.316;2023-11-19T12:49:58;26.80;;;14.60;;
57341;SDS011;43175;51.002;18.316;2023-11-19T12:52:23;26.60;;;14.70;;
57341;SDS011;43175;51.002;18.316;2023-11-19T12:54:49;30.10;;;15.80;;
57341;SDS011;43175;51.002;18.316;2023-11-19T12:57:16;27.10;;;15.00;;
57341;SDS011;43175;51.002;18.316;2023-11-19T12:59:54;28.40;;;15.50;;
57341;SDS011;43175;51.002;18.316;2023-11-19T13:02:21;30.40;;;15.10;;
57341;SDS011;43175;51.002;18.316;2023-11-19T13:04:48;28.10;;;15.10;;
57341;SDS011;43175;51.002;18.316;2023-11-19T13:07:20;27.40;;;15.20;;
57341;SDS011;43175;51.002;18.316;2023-11-19T13:09:46;31.40;;;16.60;;
57341;SDS011;43175;51.002;18.316;2023-11-19T13:12:12;30.50;;;14.90;;
57341;SDS011;43175;51.002;18.316;2023-11-19T13:14:39;32.40;;;16.70;;
57341;SDS011;43175;51.002;18.316;2023-11-19T13:17:07;35.60;;;18.60;;
57341;SDS011;43175;51.002;18.316;2023-11-19T13:19:33;29.20;;;15.40;;
57341;SDS011;43175;51.002;18.316;2023-11-19T13:22:00;30.10;;;15.60;;
57341;SDS011;43175;51.002;18.316;2023-11-19T13:24:25;23.50;;;12.50;;
57341;SDS011;43175;51.002;18.316;2023-11-19T13:26:51;24.90;;;12.30;;
57341;SDS011;43175;51.002;18.316;2023-11-19T13:29:16;24.90;;;13.10;;
57341;SDS011;43175;51.002;18.316;2023-11-19T13:31:42;23.80;;;12.50;;
57341;SDS011;43175;51.002;18.316;2023-11-19T13:34:08;21.90;;;11.70;;
57341;SDS011;43175;51.002;18.316;2023-11-19T13:36:33;24.20;;;11.50;;
57341;SDS011;43175;51.002;18.316;2023-11-19T13:39:00;21.50;;;11.70;;
57341;SDS011;43175;51.002;18.316;2023-11-19T13:41:26;24.20;;;13.80;;
57341;SDS011;43175;51.002;18.316;2023-11-19T13:43:52;24.90;;;14.00;;
57341;SDS011;43175;51.002;18.316;2023-11-19T13:46:19;27.40;;;14.90;;
57341;SDS011;43175;51.002;18.316;2023-11-19T13:48:45;25.90;;;14.00;;
57341;SDS011;43175;51.002;18.316;2023-11-19T13:51:11;25.20;;;13.40;;
57341;SDS011;43175;51.002;18.316;2023-11-19T13:53:36;23.50;;;12.70;;
57341;SDS011;43175;51.002;18.316;2023-11-19T13:56:03;22.40;;;11.40;;
57341;SDS011;43175;51.002;18.316;2023-11-19T13:58:29;22.80;;;12.10;;
57341;SDS011;43175;51.002;18.316;2023-11-19T14:00:54;23.90;;;12.30;;
57341;SDS011;43175;51.002;18.316;2023-11-19T14:03:20;26.60;;;13.30;;
57341;SDS011;43175;51.002;18.316;2023-11-19T14:05:45;27.80;;;15.60;;
57341;SDS011;43175;51.002;18.316;2023-11-19T14:08:11;26.10;;;14.50;;
57341;SDS011;43175;51.002;18.316;2023-11-19T14:10:40;30.60;;;15.90;;
57341;SDS011;43175;51.002;18.316;2023-11-19T14:13:06;28.90;;;16.20;;
57341;SDS011;43175;51.002;18.316;2023-11-19T14:15:32;28.80;;;15.60;;
57341;SDS011;43175;51.002;18.316;2023-11-19T14:17:58;26.40;;;14.80;;
57341;SDS011;43175;51.002;18.316;2023-11-19T14:20:24;27.70;;;14.80;;
57341;SDS011;43175;51.002;18.316;2023-11-19T14:22:51;28.00;;;14.90;;
57341;SDS011;43175;51.002;18.316;2023-11-19T14:25:17;27.10;;;14.80;;
57341;SDS011;43175;51.002;18.316;2023-11-19T14:27:44;25.20;;;13.20;;
57341;SDS011;43175;51.002;18.316;2023-11-19T14:30:13;24.60;;;13.90;;
57341;SDS011;43175;51.002;18.316;2023-11-19T14:32:39;29.00;;;14.50;;
57341;SDS011;43175;51.002;18.316;2023-11-19T14:35:11;32.30;;;16.00;;
57341;SDS011;43175;51.002;18.316;2023-11-19T14:37:37;33.00;;;16.10;;
57341;SDS011;43175;51.002;18.316;2023-11-19T14:45:00;27.90;;;13.40;;